sensor_id;sensor_type;location;lat;lon;timestamp;P1;durP1;ratioP1;P2;durP2;ratioP2
51495;SDS011;37572;52.094;4.870;2022-08-21T00:01:55;10.60;;;4.85;;
51495;SDS011;37572;52.094;4.870;2022-08-21T00:04:21;10.40;;;4.95;;
51495;SDS011;37572;52.094;4.870;2022-08-21T00:06:47;8.88;;;4.90;;
51495;SDS011;37572;52.094;4.870;2022-08-21T00:09:12;11.52;;;5.95;;
51495;SDS011;37572;52.094;4.870;2022-08-21T00:11:37;9.88;;;5.30;;
51495;SDS011;37572;52.094;4.870;2022-08-21T00:14:04;10.40;;;5.25;;
51495;SDS011;37572;52.094;4.870;2022-08-21T00:16:31;10.23;;;5.00;;
51495;SDS011;37572;52.094;4.870;2022-08-21T00:18:57;9.63;;;5.13;;
51495;SDS011;37572;52.094;4.870;2022-08-21T00:21:22;12.27;;;5.78;;
51495;SDS011;37572;52.094;4.870;2022-08-21T00:23:47;11.68;;;5.55;;
51495;SDS011;37572;52.094;4.870;2022-08-21T00:26:13;16.52;;;5.97;;
51495;SDS011;37572;52.094;4.870;2022-08-21T00:28:38;10.23;;;4.72;;
51495;SDS011;37572;52.094;4.870;2022-08-21T00:31:04;12.73;;;5.53;;
51495;SDS011;37572;52.094;4.870;2022-08-21T00:33:30;11.45;;;5.28;;
51495;SDS011;37572;52.094;4.870;2022-08-21T00:35:55;11.65;;;5.95;;
51495;SDS011;37572;52.094;4.870;2022-08-21T00:38:21;14.73;;;6.15;;
51495;SDS011;37572;52.094;4.870;2022-08-21T00:40:48;9.27;;;4.95;;
51495;SDS011;37572;52.094;4.870;2022-08-21T00:43:18;14.57;;;6.30;;
51495;SDS011;37572;52.094;4.870;2022-08-21T00:48:11;12.68;;;5.90;;
51495;SDS011;37572;52.094;4.870;2022-08-21T00:50:38;13.10;;;6.55;;
51495;SDS011;37572;52.094;4.870;2022-08-21T00:53:09;11.85;;;6.18;;
51495;SDS011;37572;52.094;4.870;2022-08-21T00:55:36;9.05;;;6.20;;
51495;SDS011;37572;52.094;4.870;2022-08-21T00:58:03;9.15;;;5.47;;
51495;SDS011;37572;52.094;4.870;2022-08-21T01:00:33;10.50;;;5.78;;
51495;SDS011;37572;52.094;4.870;2022-08-21T01:03:05;14.35;;;6.20;;
51495;SDS011;37572;52.094;4.870;2022-08-21T01:05:33;10.70;;;6.25;;
51495;SDS011;37572;52.094;4.870;2022-08-21T01:07:58;10.23;;;5.43;;
51495;SDS011;37572;52.094;4.870;2022-08-21T01:10:24;13.15;;;6.40;;
51495;SDS011;37572;52.094;4.870;2022-08-21T01:12:50;9.27;;;6.32;;
51495;SDS011;37572;52.094;4.870;2022-08-21T01:15:17;9.88;;;6.57;;
51495;SDS011;37572;52.094;4.870;2022-08-21T01:17:45;13.25;;;6.57;;
51495;SDS011;37572;52.094;4.870;2022-08-21T01:20:11;9.75;;;6.38;;
51495;SDS011;37572;52.094;4.870;2022-08-21T01:22:37;12.07;;;8.20;;
51495;SDS011;37572;52.094;4.870;2022-08-21T01:25:04;9.75;;;6.68;;
51495;SDS011;37572;52.094;4.870;2022-08-21T01:27:31;11.77;;;6.90;;
51495;SDS011;37572;52.094;4.870;2022-08-21T01:29:58;11.60;;;7.35;;
51495;SDS011;37572;52.094;4.870;2022-08-21T01:32:28;20.50;;;9.02;;
51495;SDS011;37572;52.094;4.870;2022-08-21T01:34:54;15.82;;;7.80;;
51495;SDS011;37572;52.094;4.870;2022-08-21T01:37:20;13.32;;;7.60;;
51495;SDS011;37572;52.094;4.870;2022-08-21T01:39:46;13.65;;;7.57;;
51495;SDS011;37572;52.094;4.870;2022-08-21T01:42:13;18.05;;;7.45;;
51495;SDS011;37572;52.094;4.870;2022-08-21T01:44:38;12.70;;;7.10;;
51495;SDS011;37572;52.094;4.870;2022-08-21T01:47:05;14.93;;;6.97;;
51495;SDS011;37572;52.094;4.870;2022-08-21T01:49:33;15.30;;;7.05;;
51495;SDS011;37572;52.094;4.870;2022-08-21T01:51:58;11.07;;;6.95;;
51495;SDS011;37572;52.094;4.870;2022-08-21T01:54:24;14.65;;;7.43;;
51495;SDS011;37572;52.094;4.870;2022-08-21T01:56:50;11.18;;;6.40;;
51495;SDS011;37572;52.094;4.870;2022-08-21T01:59:18;12.52;;;7.03;;
51495;SDS011;37572;52.094;4.870;2022-08-21T02:01:44;11.23;;;6.55;;
51495;SDS011;37572;52.094;4.870;2022-08-21T02:04:09;10.20;;;5.88;;
51495;SDS011;37572;52.094;4.870;2022-08-21T02:06:36;16.45;;;6.47;;
51495;SDS011;37572;52.094;4.870;2022-08-21T02:09:05;10.98;;;7.47;;
51495;SDS011;37572;52.094;4.870;2022-08-21T02:11:34;15.00;;;6.75;;
51495;SDS011;37572;52.094;4.870;2022-08-21T02:14:00;12.20;;;6.68;;
51495;SDS011;37572;52.094;4.870;2022-08-21T02:16:27;17.52;;;7.38;;
51495;SDS011;37572;52.094;4.870;2022-08-21T02:18:52;13.40;;;6.90;;
51495;SDS011;37572;52.094;4.870;2022-08-21T02:21:17;11.20;;;6.72;;
51495;SDS011;37572;52.094;4.870;2022-08-21T02:23:43;15.90;;;7.43;;
51495;SDS011;37572;52.094;4.870;2022-08-21T02:26:08;12.50;;;6.72;;
51495;SDS011;37572;52.094;4.870;2022-08-21T02:28:34;11.90;;;6.10;;
51495;SDS011;37572;52.094;4.870;2022-08-21T02:31:01;10.02;;;6.47;;
51495;SDS011;37572;52.094;4.870;2022-08-21T02:33:27;16.02;;;7.28;;
51495;SDS011;37572;52.094;4.870;2022-08-21T02:35:53;16.58;;;6.70;;
51495;SDS011;37572;52.094;4.870;2022-08-21T02:38:20;17.38;;;6.45;;
51495;SDS011;37572;52.094;4.870;2022-08-21T02:40:48;14.27;;;7.20;;
51495;SDS011;37572;52.094;4.870;2022-08-21T02:43:16;12.32;;;6.70;;
51495;SDS011;37572;52.094;4.870;2022-08-21T02:45:43;13.02;;;6.43;;
51495;SDS011;37572;52.094;4.870;2022-08-21T02:48:10;14.00;;;5.97;;
51495;SDS011;37572;52.094;4.870;2022-08-21T02:50:42;11.57;;;6.53;;
51495;SDS011;37572;52.094;4.870;2022-08-21T02:53:11;13.25;;;6.28;;
51495;SDS011;37572;52.094;4.870;2022-08-21T02:55:39;14.35;;;7.00;;
51495;SDS011;37572;52.094;4.870;2022-08-21T02:58:06;14.15;;;6.93;;
51495;SDS011;37572;52.094;4.870;2022-08-21T03:00:32;14.30;;;6.13;;
51495;SDS011;37572;52.094;4.870;2022-08-21T03:02:59;15.50;;;7.15;;
51495;SDS011;37572;52.094;4.870;2022-08-21T03:05:26;13.73;;;7.20;;
51495;SDS011;37572;52.094;4.870;2022-08-21T03:07:52;15.23;;;6.93;;
51495;SDS011;37572;52.094;4.870;2022-08-21T03:10:18;13.63;;;6.97;;
51495;SDS011;37572;52.094;4.870;2022-08-21T03:12:45;17.67;;;7.20;;
51495;SDS011;37572;52.094;4.870;2022-08-21T03:15:11;15.15;;;7.63;;
51495;SDS011;37572;52.094;4.870;2022-08-21T03:17:38;13.65;;;6.50;;
51495;SDS011;37572;52.094;4.870;2022-08-21T03:20:04;14.68;;;6.30;;
51495;SDS011;37572;52.094;4.870;2022-08-21T03:22:30;18.23;;;7.03;;
51495;SDS011;37572;52.094;4.870;2022-08-21T03:24:57;14.80;;;6.88;;
51495;SDS011;37572;52.094;4.870;2022-08-21T03:27:23;14.82;;;6.88;;
51495;SDS011;37572;52.094;4.870;2022-08-21T03:29:49;17.77;;;8.68;;
51495;SDS011;37572;52.094;4.870;2022-08-21T03:32:15;13.50;;;7.32;;
51495;SDS011;37572;52.094;4.870;2022-08-21T03:34:40;13.38;;;6.93;;
51495;SDS011;37572;52.094;4.870;2022-08-21T03:37:06;13.07;;;7.25;;
51495;SDS011;37572;52.094;4.870;2022-08-21T03:39:32;14.95;;;7.25;;
51495;SDS011;37572;52.094;4.870;2022-08-21T03:41:57;11.10;;;6.97;;
51495;SDS011;37572;52.094;4.870;2022-08-21T03:44:24;13.38;;;6.20;;
51495;SDS011;37572;52.094;4.870;2022-08-21T03:46:50;15.88;;;7.43;;
51495;SDS011;37572;52.094;4.870;2022-08-21T03:49:15;13.45;;;7.45;;
51495;SDS011;37572;52.094;4.870;2022-08-21T03:51:41;13.75;;;6.82;;
51495;SDS011;37572;52.094;4.870;2022-08-21T03:54:06;10.35;;;6.30;;
51495;SDS011;37572;52.094;4.870;2022-08-21T03:56:31;15.68;;;7.38;;
51495;SDS011;37572;52.094;4.870;2022-08-21T03:58:57;11.02;;;6.20;;
51495;SDS011;37572;52.094;4.870;2022-08-21T04:01:22;13.25;;;6.22;;
51495;SDS011;37572;52.094;4.870;2022-08-21T04:03:47;20.10;;;6.72;;
51495;SDS011;37572;52.094;4.870;2022-08-21T04:06:14;13.65;;;6.22;;
51495;SDS011;37572;52.094;4.870;2022-08-21T04:08:40;21.75;;;8.25;;
51495;SDS011;37572;52.094;4.870;2022-08-21T04:11:07;21.65;;;7.63;;
51495;SDS011;37572;52.094;4.870;2022-08-21T04:13:35;22.00;;;6.78;;
51495;SDS011;37572;52.094;4.870;2022-08-21T04:16:00;11.90;;;6.10;;
51495;SDS011;37572;52.094;4.870;2022-08-21T04:18:26;18.27;;;7.25;;
51495;SDS011;37572;52.094;4.870;2022-08-21T04:20:51;15.52;;;6.03;;
51495;SDS011;37572;52.094;4.870;2022-08-21T04:23:19;15.23;;;6.65;;
51495;SDS011;37572;52.094;4.870;2022-08-21T04:25:45;17.42;;;7.20;;
51495;SDS011;37572;52.094;4.870;2022-08-21T04:28:10;12.82;;;6.40;;
51495;SDS011;37572;52.094;4.870;2022-08-21T04:30:35;16.42;;;5.65;;
51495;SDS011;37572;52.094;4.870;2022-08-21T04:33:01;18.85;;;6.22;;
51495;SDS011;37572;52.094;4.870;2022-08-21T04:35:27;18.63;;;7.43;;
51495;SDS011;37572;52.094;4.870;2022-08-21T04:37:53;12.15;;;6.07;;
51495;SDS011;37572;52.094;4.870;2022-08-21T04:40:19;16.38;;;6.95;;
51495;SDS011;37572;52.094;4.870;2022-08-21T04:42:47;9.13;;;5.85;;
51495;SDS011;37572;52.094;4.870;2022-08-21T04:45:33;14.80;;;6.18;;
51495;SDS011;37572;52.094;4.870;2022-08-21T04:48:06;14.35;;;6.35;;
51495;SDS011;37572;52.094;4.870;2022-08-21T04:53:25;15.93;;;6.32;;
51495;SDS011;37572;52.094;4.870;2022-08-21T04:56:13;20.35;;;7.10;;
51495;SDS011;37572;52.094;4.870;2022-08-21T04:58:44;18.95;;;6.32;;
51495;SDS011;37572;52.094;4.870;2022-08-21T05:01:11;17.67;;;7.82;;
51495;SDS011;37572;52.094;4.870;2022-08-21T05:03:40;14.48;;;6.60;;
51495;SDS011;37572;52.094;4.870;2022-08-21T05:06:06;18.90;;;7.15;;
51495;SDS011;37572;52.094;4.870;2022-08-21T05:08:33;14.95;;;6.70;;
51495;SDS011;37572;52.094;4.870;2022-08-21T05:10:59;20.75;;;7.75;;
51495;SDS011;37572;52.094;4.870;2022-08-21T05:13:24;18.20;;;6.72;;
51495;SDS011;37572;52.094;4.870;2022-08-21T05:15:49;14.98;;;6.65;;
51495;SDS011;37572;52.094;4.870;2022-08-21T05:18:15;20.05;;;6.85;;
51495;SDS011;37572;52.094;4.870;2022-08-21T05:20:40;12.43;;;6.20;;
51495;SDS011;37572;52.094;4.870;2022-08-21T05:23:09;16.52;;;7.22;;
51495;SDS011;37572;52.094;4.870;2022-08-21T05:25:37;15.90;;;7.00;;
51495;SDS011;37572;52.094;4.870;2022-08-21T05:28:03;21.65;;;7.20;;
51495;SDS011;37572;52.094;4.870;2022-08-21T05:30:29;22.38;;;7.47;;
51495;SDS011;37572;52.094;4.870;2022-08-21T05:32:58;18.73;;;7.30;;
51495;SDS011;37572;52.094;4.870;2022-08-21T05:35:24;20.40;;;7.88;;
51495;SDS011;37572;52.094;4.870;2022-08-21T05:37:50;18.88;;;6.82;;
51495;SDS011;37572;52.094;4.870;2022-08-21T05:40:16;16.92;;;7.28;;
51495;SDS011;37572;52.094;4.870;2022-08-21T05:42:41;13.20;;;6.68;;
51495;SDS011;37572;52.094;4.870;2022-08-21T05:45:06;15.60;;;6.70;;
51495;SDS011;37572;52.094;4.870;2022-08-21T05:47:32;13.43;;;7.22;;
51495;SDS011;37572;52.094;4.870;2022-08-21T05:49:57;20.15;;;8.02;;
51495;SDS011;37572;52.094;4.870;2022-08-21T05:52:22;17.77;;;7.38;;
51495;SDS011;37572;52.094;4.870;2022-08-21T05:54:48;19.50;;;6.70;;
51495;SDS011;37572;52.094;4.870;2022-08-21T05:57:14;18.90;;;7.00;;
51495;SDS011;37572;52.094;4.870;2022-08-21T05:59:39;23.73;;;7.72;;
51495;SDS011;37572;52.094;4.870;2022-08-21T06:02:05;19.67;;;7.63;;
51495;SDS011;37572;52.094;4.870;2022-08-21T06:04:35;19.20;;;7.20;;
51495;SDS011;37572;52.094;4.870;2022-08-21T06:07:01;13.63;;;6.82;;
51495;SDS011;37572;52.094;4.870;2022-08-21T06:09:26;17.10;;;6.82;;
51495;SDS011;37572;52.094;4.870;2022-08-21T06:11:51;12.80;;;6.00;;
51495;SDS011;37572;52.094;4.870;2022-08-21T06:14:16;20.08;;;6.63;;
51495;SDS011;37572;52.094;4.870;2022-08-21T06:16:42;13.68;;;6.68;;
51495;SDS011;37572;52.094;4.870;2022-08-21T06:19:07;17.58;;;7.32;;
51495;SDS011;37572;52.094;4.870;2022-08-21T06:21:32;24.70;;;7.13;;
51495;SDS011;37572;52.094;4.870;2022-08-21T06:23:58;20.08;;;7.03;;
51495;SDS011;37572;52.094;4.870;2022-08-21T06:26:23;19.88;;;7.07;;
51495;SDS011;37572;52.094;4.870;2022-08-21T06:28:48;21.45;;;6.70;;
51495;SDS011;37572;52.094;4.870;2022-08-21T06:31:15;19.40;;;6.90;;
51495;SDS011;37572;52.094;4.870;2022-08-21T06:33:45;14.98;;;5.78;;
51495;SDS011;37572;52.094;4.870;2022-08-21T06:36:11;14.15;;;5.13;;
51495;SDS011;37572;52.094;4.870;2022-08-21T06:38:37;14.27;;;6.20;;
51495;SDS011;37572;52.094;4.870;2022-08-21T06:41:03;19.23;;;5.88;;
51495;SDS011;37572;52.094;4.870;2022-08-21T06:43:29;16.88;;;6.18;;
51495;SDS011;37572;52.094;4.870;2022-08-21T06:45:54;13.25;;;5.05;;
51495;SDS011;37572;52.094;4.870;2022-08-21T06:48:20;15.52;;;5.10;;
51495;SDS011;37572;52.094;4.870;2022-08-21T06:50:46;23.38;;;6.53;;
51495;SDS011;37572;52.094;4.870;2022-08-21T06:53:12;12.82;;;4.85;;
51495;SDS011;37572;52.094;4.870;2022-08-21T06:55:39;19.50;;;5.40;;
51495;SDS011;37572;52.094;4.870;2022-08-21T06:58:04;15.98;;;4.68;;
51495;SDS011;37572;52.094;4.870;2022-08-21T07:00:30;14.45;;;5.40;;
51495;SDS011;37572;52.094;4.870;2022-08-21T07:02:56;15.88;;;5.40;;
51495;SDS011;37572;52.094;4.870;2022-08-21T07:05:24;15.57;;;4.90;;
51495;SDS011;37572;52.094;4.870;2022-08-21T07:07:51;16.92;;;5.65;;
51495;SDS011;37572;52.094;4.870;2022-08-21T07:10:16;15.05;;;5.85;;
51495;SDS011;37572;52.094;4.870;2022-08-21T07:12:42;13.95;;;5.07;;
51495;SDS011;37572;52.094;4.870;2022-08-21T07:15:07;14.70;;;5.05;;
51495;SDS011;37572;52.094;4.870;2022-08-21T07:17:33;16.27;;;5.35;;
51495;SDS011;37572;52.094;4.870;2022-08-21T07:19:58;12.80;;;4.45;;
51495;SDS011;37572;52.094;4.870;2022-08-21T07:22:24;16.00;;;4.63;;
51495;SDS011;37572;52.094;4.870;2022-08-21T07:24:50;17.70;;;5.10;;
51495;SDS011;37572;52.094;4.870;2022-08-21T07:27:15;13.15;;;5.07;;
51495;SDS011;37572;52.094;4.870;2022-08-21T07:29:41;13.60;;;4.55;;
51495;SDS011;37572;52.094;4.870;2022-08-21T07:32:06;16.05;;;4.88;;
51495;SDS011;37572;52.094;4.870;2022-08-21T07:34:32;16.13;;;5.13;;
51495;SDS011;37572;52.094;4.870;2022-08-21T07:36:57;11.13;;;4.60;;
51495;SDS011;37572;52.094;4.870;2022-08-21T07:39:23;18.85;;;5.25;;
51495;SDS011;37572;52.094;4.870;2022-08-21T07:41:49;12.43;;;4.07;;
51495;SDS011;37572;52.094;4.870;2022-08-21T07:44:14;18.95;;;5.28;;
51495;SDS011;37572;52.094;4.870;2022-08-21T07:46:39;16.15;;;4.78;;
51495;SDS011;37572;52.094;4.870;2022-08-21T07:49:05;16.73;;;4.88;;
51495;SDS011;37572;52.094;4.870;2022-08-21T07:51:30;25.52;;;5.45;;
51495;SDS011;37572;52.094;4.870;2022-08-21T07:53:57;14.63;;;5.13;;
51495;SDS011;37572;52.094;4.870;2022-08-21T07:56:26;12.18;;;4.38;;
51495;SDS011;37572;52.094;4.870;2022-08-21T07:58:53;18.10;;;4.70;;
51495;SDS011;37572;52.094;4.870;2022-08-21T08:01:18;11.73;;;4.10;;
51495;SDS011;37572;52.094;4.870;2022-08-21T08:03:44;15.05;;;4.97;;
51495;SDS011;37572;52.094;4.870;2022-08-21T08:06:10;20.10;;;5.57;;
51495;SDS011;37572;52.094;4.870;2022-08-21T08:08:40;16.10;;;4.95;;
51495;SDS011;37572;52.094;4.870;2022-08-21T08:11:07;19.00;;;5.07;;
51495;SDS011;37572;52.094;4.870;2022-08-21T08:13:39;17.73;;;4.93;;
51495;SDS011;37572;52.094;4.870;2022-08-21T08:16:10;18.55;;;5.65;;
51495;SDS011;37572;52.094;4.870;2022-08-21T08:18:35;19.50;;;5.35;;
51495;SDS011;37572;52.094;4.870;2022-08-21T08:21:01;15.25;;;4.20;;
51495;SDS011;37572;52.094;4.870;2022-08-21T08:23:26;18.02;;;4.70;;
51495;SDS011;37572;52.094;4.870;2022-08-21T08:25:52;17.48;;;4.47;;
51495;SDS011;37572;52.094;4.870;2022-08-21T08:28:17;11.73;;;4.50;;
51495;SDS011;37572;52.094;4.870;2022-08-21T08:30:46;18.83;;;5.20;;
51495;SDS011;37572;52.094;4.870;2022-08-21T08:33:11;17.05;;;5.13;;
51495;SDS011;37572;52.094;4.870;2022-08-21T08:35:37;20.55;;;5.93;;
51495;SDS011;37572;52.094;4.870;2022-08-21T08:38:03;13.48;;;4.28;;
51495;SDS011;37572;52.094;4.870;2022-08-21T08:40:37;18.05;;;4.00;;
51495;SDS011;37572;52.094;4.870;2022-08-21T08:43:08;18.38;;;4.53;;
51495;SDS011;37572;52.094;4.870;2022-08-21T08:45:36;22.30;;;4.68;;
51495;SDS011;37572;52.094;4.870;2022-08-21T08:48:04;16.20;;;4.75;;
51495;SDS011;37572;52.094;4.870;2022-08-21T08:53:32;17.20;;;4.35;;
51495;SDS011;37572;52.094;4.870;2022-08-21T08:56:10;15.50;;;4.00;;
51495;SDS011;37572;52.094;4.870;2022-08-21T08:58:39;19.08;;;4.35;;
51495;SDS011;37572;52.094;4.870;2022-08-21T09:01:11;18.95;;;3.72;;
51495;SDS011;37572;52.094;4.870;2022-08-21T09:03:42;14.82;;;3.60;;
51495;SDS011;37572;52.094;4.870;2022-08-21T09:09:07;12.02;;;3.83;;
51495;SDS011;37572;52.094;4.870;2022-08-21T09:11:50;15.48;;;3.42;;
51495;SDS011;37572;52.094;4.870;2022-08-21T09:14:41;16.10;;;4.65;;
51495;SDS011;37572;52.094;4.870;2022-08-21T09:25:50;13.70;;;3.42;;
51495;SDS011;37572;52.094;4.870;2022-08-21T09:28:39;12.00;;;3.40;;
51495;SDS011;37572;52.094;4.870;2022-08-21T09:31:07;17.85;;;4.00;;
51495;SDS011;37572;52.094;4.870;2022-08-21T09:33:36;13.27;;;3.55;;
51495;SDS011;37572;52.094;4.870;2022-08-21T09:36:01;20.33;;;3.90;;
51495;SDS011;37572;52.094;4.870;2022-08-21T09:38:33;14.43;;;3.20;;
51495;SDS011;37572;52.094;4.870;2022-08-21T09:41:03;13.15;;;3.08;;
51495;SDS011;37572;52.094;4.870;2022-08-21T09:43:30;10.10;;;3.33;;
51495;SDS011;37572;52.094;4.870;2022-08-21T09:46:07;9.95;;;3.03;;
51495;SDS011;37572;52.094;4.870;2022-08-21T09:48:39;8.80;;;2.83;;
51495;SDS011;37572;52.094;4.870;2022-08-21T09:51:06;9.85;;;3.28;;
51495;SDS011;37572;52.094;4.870;2022-08-21T09:53:38;18.10;;;3.20;;
51495;SDS011;37572;52.094;4.870;2022-08-21T09:56:18;8.10;;;2.85;;
51495;SDS011;37572;52.094;4.870;2022-08-21T09:59:17;14.38;;;3.92;;
51495;SDS011;37572;52.094;4.870;2022-08-21T10:01:47;12.63;;;3.60;;
51495;SDS011;37572;52.094;4.870;2022-08-21T10:04:14;7.75;;;2.65;;
51495;SDS011;37572;52.094;4.870;2022-08-21T10:06:40;10.15;;;2.60;;
51495;SDS011;37572;52.094;4.870;2022-08-21T10:09:08;10.55;;;2.75;;
51495;SDS011;37572;52.094;4.870;2022-08-21T10:11:36;8.15;;;2.95;;
51495;SDS011;37572;52.094;4.870;2022-08-21T10:14:30;20.38;;;3.05;;
51495;SDS011;37572;52.094;4.870;2022-08-21T10:22:24;20.45;;;3.53;;
51495;SDS011;37572;52.094;4.870;2022-08-21T10:28:19;12.88;;;2.60;;
51495;SDS011;37572;52.094;4.870;2022-08-21T10:33:46;7.30;;;2.35;;
51495;SDS011;37572;52.094;4.870;2022-08-21T10:36:39;9.32;;;2.38;;
51495;SDS011;37572;52.094;4.870;2022-08-21T10:39:33;9.40;;;2.25;;
51495;SDS011;37572;52.094;4.870;2022-08-21T10:47:33;10.52;;;2.58;;
51495;SDS011;37572;52.094;4.870;2022-08-21T10:50:04;8.57;;;2.17;;
51495;SDS011;37572;52.094;4.870;2022-08-21T10:55:43;10.93;;;3.17;;
51495;SDS011;37572;52.094;4.870;2022-08-21T10:58:19;9.40;;;2.35;;
51495;SDS011;37572;52.094;4.870;2022-08-21T11:00:55;12.65;;;3.08;;
51495;SDS011;37572;52.094;4.870;2022-08-21T11:03:29;12.13;;;3.08;;
51495;SDS011;37572;52.094;4.870;2022-08-21T11:06:00;13.90;;;2.85;;
51495;SDS011;37572;52.094;4.870;2022-08-21T11:08:32;7.72;;;2.10;;
51495;SDS011;37572;52.094;4.870;2022-08-21T11:11:07;10.80;;;2.33;;
51495;SDS011;37572;52.094;4.870;2022-08-21T11:13:41;10.60;;;2.85;;
51495;SDS011;37572;52.094;4.870;2022-08-21T11:18:46;17.45;;;2.75;;
51495;SDS011;37572;52.094;4.870;2022-08-21T11:24:00;13.02;;;3.10;;
51495;SDS011;37572;52.094;4.870;2022-08-21T11:26:47;9.95;;;2.70;;
51495;SDS011;37572;52.094;4.870;2022-08-21T11:29:20;13.52;;;2.50;;
51495;SDS011;37572;52.094;4.870;2022-08-21T11:34:34;15.27;;;3.33;;
51495;SDS011;37572;52.094;4.870;2022-08-21T11:37:15;12.02;;;2.78;;
51495;SDS011;37572;52.094;4.870;2022-08-21T11:42:37;12.50;;;2.72;;
51495;SDS011;37572;52.094;4.870;2022-08-21T11:48:07;11.40;;;3.05;;
51495;SDS011;37572;52.094;4.870;2022-08-21T11:50:37;12.18;;;3.03;;
51495;SDS011;37572;52.094;4.870;2022-08-21T11:55:53;10.40;;;2.83;;
51495;SDS011;37572;52.094;4.870;2022-08-21T11:58:43;10.25;;;2.72;;
51495;SDS011;37572;52.094;4.870;2022-08-21T12:04:07;7.80;;;2.63;;
51495;SDS011;37572;52.094;4.870;2022-08-21T12:06:38;8.90;;;2.75;;
51495;SDS011;37572;52.094;4.870;2022-08-21T12:09:06;9.25;;;2.88;;
51495;SDS011;37572;52.094;4.870;2022-08-21T12:15:22;10.75;;;2.50;;
51495;SDS011;37572;52.094;4.870;2022-08-21T12:21:00;11.98;;;2.55;;
51495;SDS011;37572;52.094;4.870;2022-08-21T12:24:00;12.55;;;2.83;;
51495;SDS011;37572;52.094;4.870;2022-08-21T12:29:04;13.60;;;3.13;;
51495;SDS011;37572;52.094;4.870;2022-08-21T12:31:35;9.52;;;2.45;;
51495;SDS011;37572;52.094;4.870;2022-08-21T12:34:02;10.00;;;2.78;;
51495;SDS011;37572;52.094;4.870;2022-08-21T12:36:44;7.13;;;1.95;;
51495;SDS011;37572;52.094;4.870;2022-08-21T12:39:15;12.13;;;2.47;;
51495;SDS011;37572;52.094;4.870;2022-08-21T12:44:41;7.25;;;2.45;;
51495;SDS011;37572;52.094;4.870;2022-08-21T12:47:15;10.40;;;2.75;;
51495;SDS011;37572;52.094;4.870;2022-08-21T12:50:09;10.10;;;2.45;;
51495;SDS011;37572;52.094;4.870;2022-08-21T12:52:40;9.18;;;2.40;;
51495;SDS011;37572;52.094;4.870;2022-08-21T12:55:14;6.07;;;2.03;;
51495;SDS011;37572;52.094;4.870;2022-08-21T12:57:41;12.85;;;2.60;;
51495;SDS011;37572;52.094;4.870;2022-08-21T13:00:08;9.27;;;2.35;;
51495;SDS011;37572;52.094;4.870;2022-08-21T13:02:42;7.57;;;2.38;;
51495;SDS011;37572;52.094;4.870;2022-08-21T13:05:12;12.07;;;2.65;;
51495;SDS011;37572;52.094;4.870;2022-08-21T13:07:43;9.50;;;2.45;;
51495;SDS011;37572;52.094;4.870;2022-08-21T13:10:19;10.93;;;3.00;;
51495;SDS011;37572;52.094;4.870;2022-08-21T13:15:23;9.98;;;2.20;;
51495;SDS011;37572;52.094;4.870;2022-08-21T13:17:51;6.82;;;1.90;;
51495;SDS011;37572;52.094;4.870;2022-08-21T13:20:22;6.75;;;2.15;;
51495;SDS011;37572;52.094;4.870;2022-08-21T13:22:50;7.00;;;2.45;;
51495;SDS011;37572;52.094;4.870;2022-08-21T13:25:17;5.53;;;2.05;;
51495;SDS011;37572;52.094;4.870;2022-08-21T13:27:45;6.60;;;2.30;;
51495;SDS011;37572;52.094;4.870;2022-08-21T13:30:21;8.75;;;2.35;;
51495;SDS011;37572;52.094;4.870;2022-08-21T13:32:48;8.65;;;2.03;;
51495;SDS011;37572;52.094;4.870;2022-08-21T13:35:18;9.57;;;2.00;;
51495;SDS011;37572;52.094;4.870;2022-08-21T13:37:46;8.07;;;2.22;;
51495;SDS011;37572;52.094;4.870;2022-08-21T13:40:14;5.28;;;1.80;;
51495;SDS011;37572;52.094;4.870;2022-08-21T13:42:43;6.43;;;1.70;;
51495;SDS011;37572;52.094;4.870;2022-08-21T13:45:17;6.45;;;1.95;;
51495;SDS011;37572;52.094;4.870;2022-08-21T13:47:47;9.57;;;1.98;;
51495;SDS011;37572;52.094;4.870;2022-08-21T13:50:13;7.53;;;2.13;;
51495;SDS011;37572;52.094;4.870;2022-08-21T13:52:46;6.75;;;1.60;;
51495;SDS011;37572;52.094;4.870;2022-08-21T13:55:15;5.95;;;1.92;;
51495;SDS011;37572;52.094;4.870;2022-08-21T13:57:42;5.45;;;1.80;;
51495;SDS011;37572;52.094;4.870;2022-08-21T14:00:11;8.75;;;1.80;;
51495;SDS011;37572;52.094;4.870;2022-08-21T14:02:39;5.25;;;2.30;;
51495;SDS011;37572;52.094;4.870;2022-08-21T14:05:07;6.67;;;2.50;;
51495;SDS011;37572;52.094;4.870;2022-08-21T14:07:39;7.55;;;2.10;;
51495;SDS011;37572;52.094;4.870;2022-08-21T14:10:17;5.47;;;2.30;;
51495;SDS011;37572;52.094;4.870;2022-08-21T14:12:49;8.68;;;1.75;;
51495;SDS011;37572;52.094;4.870;2022-08-21T14:15:18;7.05;;;1.98;;
51495;SDS011;37572;52.094;4.870;2022-08-21T14:17:53;7.20;;;1.83;;
51495;SDS011;37572;52.094;4.870;2022-08-21T14:23:11;8.38;;;2.25;;
51495;SDS011;37572;52.094;4.870;2022-08-21T14:25:40;7.50;;;2.08;;
51495;SDS011;37572;52.094;4.870;2022-08-21T14:28:11;5.43;;;2.37;;
51495;SDS011;37572;52.094;4.870;2022-08-21T14:30:46;9.18;;;2.45;;
51495;SDS011;37572;52.094;4.870;2022-08-21T14:33:13;9.68;;;2.50;;
51495;SDS011;37572;52.094;4.870;2022-08-21T14:35:46;7.90;;;2.65;;
51495;SDS011;37572;52.094;4.870;2022-08-21T14:38:22;8.00;;;2.30;;
51495;SDS011;37572;52.094;4.870;2022-08-21T14:40:50;10.32;;;2.15;;
51495;SDS011;37572;52.094;4.870;2022-08-21T14:43:18;9.82;;;2.42;;
51495;SDS011;37572;52.094;4.870;2022-08-21T14:45:44;7.70;;;2.00;;
51495;SDS011;37572;52.094;4.870;2022-08-21T14:48:10;7.70;;;1.90;;
51495;SDS011;37572;52.094;4.870;2022-08-21T14:50:36;8.02;;;2.17;;
51495;SDS011;37572;52.094;4.870;2022-08-21T14:53:03;7.40;;;2.67;;
51495;SDS011;37572;52.094;4.870;2022-08-21T14:55:29;8.38;;;2.00;;
51495;SDS011;37572;52.094;4.870;2022-08-21T14:57:56;10.38;;;2.25;;
51495;SDS011;37572;52.094;4.870;2022-08-21T15:00:22;7.50;;;2.10;;
51495;SDS011;37572;52.094;4.870;2022-08-21T15:02:49;10.40;;;2.40;;
51495;SDS011;37572;52.094;4.870;2022-08-21T15:05:16;6.28;;;1.90;;
51495;SDS011;37572;52.094;4.870;2022-08-21T15:07:42;8.13;;;2.33;;
51495;SDS011;37572;52.094;4.870;2022-08-21T15:10:07;8.80;;;2.03;;
51495;SDS011;37572;52.094;4.870;2022-08-21T15:12:33;9.55;;;2.03;;
51495;SDS011;37572;52.094;4.870;2022-08-21T15:14:59;14.98;;;3.05;;
51495;SDS011;37572;52.094;4.870;2022-08-21T15:17:24;14.65;;;2.72;;
51495;SDS011;37572;52.094;4.870;2022-08-21T15:19:50;9.27;;;1.90;;
51495;SDS011;37572;52.094;4.870;2022-08-21T15:22:15;10.63;;;2.72;;
51495;SDS011;37572;52.094;4.870;2022-08-21T15:24:41;9.75;;;1.90;;
51495;SDS011;37572;52.094;4.870;2022-08-21T15:27:08;7.80;;;2.22;;
51495;SDS011;37572;52.094;4.870;2022-08-21T15:32:15;8.05;;;2.17;;
51495;SDS011;37572;52.094;4.870;2022-08-21T15:34:47;8.50;;;2.17;;
51495;SDS011;37572;52.094;4.870;2022-08-21T15:37:12;12.10;;;2.92;;
51495;SDS011;37572;52.094;4.870;2022-08-21T15:39:37;8.88;;;2.00;;
51495;SDS011;37572;52.094;4.870;2022-08-21T15:42:03;8.27;;;2.13;;
51495;SDS011;37572;52.094;4.870;2022-08-21T15:44:29;14.48;;;2.83;;
51495;SDS011;37572;52.094;4.870;2022-08-21T15:46:55;12.63;;;2.80;;
51495;SDS011;37572;52.094;4.870;2022-08-21T15:49:21;9.55;;;2.33;;
51495;SDS011;37572;52.094;4.870;2022-08-21T15:51:47;11.52;;;2.67;;
51495;SDS011;37572;52.094;4.870;2022-08-21T15:54:12;7.93;;;2.33;;
51495;SDS011;37572;52.094;4.870;2022-08-21T15:56:38;9.27;;;2.05;;
51495;SDS011;37572;52.094;4.870;2022-08-21T15:59:12;9.90;;;2.67;;
51495;SDS011;37572;52.094;4.870;2022-08-21T16:01:40;10.15;;;2.38;;
51495;SDS011;37572;52.094;4.870;2022-08-21T16:04:05;12.10;;;2.45;;
51495;SDS011;37572;52.094;4.870;2022-08-21T16:06:32;13.00;;;3.05;;